createdAt,value
2019-04-03T00:00:40.705Z,0.00
2019-04-03T00:01:40.690Z,0.00
2019-04-03T00:02:40.639Z,0.00
2019-04-03T00:03:40.636Z,0.00
2019-04-03T00:04:40.619Z,0.00
2019-04-03T00:05:40.606Z,0.00
2019-04-03T00:06:40.632Z,0.00
2019-04-03T00:07:40.629Z,0.00
2019-04-03T00:08:40.567Z,0.00
2019-04-03T00:09:40.586Z,0.00
2019-04-03T00:10:40.545Z,0.00
2019-04-03T00:11:40.576Z,0.00
2019-04-03T00:12:41.259Z,0.00
2019-04-03T00:13:42.377Z,0.00
2019-04-03T00:14:42.233Z,0.00
2019-04-03T00:15:40.490Z,0.00
2019-04-03T00:16:40.477Z,0.00
2019-04-03T00:17:40.521Z,0.00
2019-04-03T00:18:40.562Z,0.00
2019-04-03T00:19:40.444Z,0.00
2019-04-03T00:20:40.476Z,0.00
2019-04-03T00:21:40.419Z,0.00
2019-04-03T00:22:40.410Z,0.00
2019-04-03T00:23:40.467Z,0.00
2019-04-03T00:24:40.385Z,0.00
2019-04-03T00:25:40.377Z,0.00
2019-04-03T00:26:40.446Z,0.00
2019-04-03T00:27:40.354Z,0.00
2019-04-03T00:28:40.340Z,0.00
2019-04-03T00:29:40.337Z,0.00
2019-04-03T00:30:40.319Z,0.00
2019-04-03T00:31:40.351Z,0.00
2019-04-03T00:32:40.294Z,0.00
2019-04-03T00:33:40.285Z,0.00
2019-04-03T00:34:40.274Z,0.00
2019-04-03T00:35:40.303Z,0.00
2019-04-03T00:36:40.293Z,0.00
2019-04-03T00:37:40.256Z,0.00
2019-04-03T00:38:40.226Z,0.00
2019-04-03T00:39:40.217Z,0.00
2019-04-03T00:40:40.361Z,0.00
2019-04-03T00:41:40.199Z,0.00
2019-04-03T00:42:40.223Z,0.00
2019-04-03T00:43:40.204Z,0.00
2019-04-03T00:44:40.158Z,0.00
2019-04-03T00:45:40.190Z,0.00
2019-04-03T00:46:40.139Z,0.00
2019-04-03T00:47:40.126Z,0.00
2019-04-03T00:48:40.116Z,0.00
2019-04-03T00:49:40.102Z,0.00
2019-04-03T00:50:40.095Z,0.00
2019-04-03T00:51:40.122Z,0.00
2019-04-03T00:52:40.072Z,0.00
2019-04-03T00:53:40.056Z,0.00
2019-04-03T00:54:40.059Z,0.00
2019-04-03T00:55:40.034Z,0.00
2019-04-03T00:56:40.139Z,0.00
2019-04-03T00:57:40.052Z,0.00
2019-04-03T00:58:40.005Z,0.00
2019-04-03T00:59:39.989Z,0.00
2019-04-03T01:00:40.017Z,0.00
2019-04-03T01:01:39.972Z,0.00
2019-04-03T01:02:39.957Z,0.00
2019-04-03T01:03:39.948Z,0.00
2019-04-03T01:04:39.934Z,0.00
2019-04-03T01:05:39.923Z,0.00
2019-04-03T01:06:39.965Z,0.00
2019-04-03T01:07:39.900Z,0.00
2019-04-03T01:08:39.889Z,0.00
2019-04-03T01:09:39.876Z,0.00
2019-04-03T01:10:39.864Z,0.00
2019-04-03T01:11:39.855Z,0.00
2019-04-03T01:12:39.887Z,0.00
2019-04-03T01:13:39.829Z,0.00
2019-04-03T01:14:39.822Z,0.00
2019-04-03T01:15:39.808Z,0.00
2019-04-03T01:16:39.804Z,0.00
2019-04-03T01:17:39.847Z,0.00
2019-04-03T01:18:39.772Z,0.00
2019-04-03T01:19:39.763Z,0.00
2019-04-03T01:20:39.754Z,0.00
2019-04-03T01:21:39.786Z,0.00
2019-04-03T01:22:39.738Z,0.00
2019-04-03T01:23:39.719Z,0.00
2019-04-03T01:24:39.705Z,0.00
2019-04-03T01:25:40.172Z,0.00
2019-04-03T01:26:40.655Z,0.00
2019-04-03T01:27:41.449Z,0.00
2019-04-03T01:28:41.610Z,0.00
2019-04-03T01:29:42.192Z,0.00
2019-04-03T01:30:39.640Z,0.00
2019-04-03T01:31:39.669Z,0.00
2019-04-03T01:32:39.657Z,0.00
2019-04-03T01:33:39.648Z,0.00
2019-04-03T01:34:39.595Z,0.00
2019-04-03T01:35:39.585Z,0.00
2019-04-03T01:36:39.568Z,0.00
2019-04-03T01:37:39.557Z,0.00
2019-04-03T01:38:39.587Z,0.00
2019-04-03T01:39:39.540Z,0.00
2019-04-03T01:40:39.530Z,0.00
2019-04-03T01:41:39.522Z,0.00
2019-04-03T01:42:39.503Z,0.00
2019-04-03T01:43:39.538Z,0.00
2019-04-03T01:44:39.483Z,0.00
2019-04-03T01:45:39.473Z,0.00
2019-04-03T01:46:39.465Z,0.00
2019-04-03T01:47:39.445Z,0.00
2019-04-03T01:48:39.436Z,0.00
2019-04-03T01:49:39.465Z,0.00
2019-04-03T01:50:39.414Z,0.00
2019-04-03T01:51:39.442Z,0.00
2019-04-03T01:52:39.390Z,0.00
2019-04-03T01:53:39.377Z,0.00
2019-04-03T01:54:39.408Z,0.00
2019-04-03T01:55:39.358Z,0.00
2019-04-03T01:56:39.351Z,0.00
2019-04-03T01:57:39.497Z,0.00
2019-04-03T01:58:39.321Z,0.00
2019-04-03T01:59:39.446Z,0.00
2019-04-03T02:00:39.343Z,0.00
2019-04-03T02:01:39.291Z,0.00
2019-04-03T02:02:39.536Z,0.00
2019-04-03T02:03:41.173Z,0.00
2019-04-03T02:04:42.004Z,0.00
2019-04-03T02:05:39.409Z,0.00
2019-04-03T02:06:39.276Z,0.00
2019-04-03T02:07:39.230Z,0.00
2019-04-03T02:08:39.266Z,0.00
2019-04-03T02:09:39.239Z,0.00
2019-04-03T02:10:39.186Z,0.00
2019-04-03T02:11:39.179Z,0.00
2019-04-03T02:12:39.166Z,0.00
2019-04-03T02:13:39.173Z,0.00
2019-04-03T02:14:39.143Z,0.00
2019-04-03T02:15:39.179Z,0.00
2019-04-03T02:16:39.120Z,0.00
2019-04-03T02:17:39.109Z,0.00
2019-04-03T02:18:39.099Z,0.00
2019-04-03T02:19:39.329Z,0.00
2019-04-03T02:20:39.077Z,0.00
2019-04-03T02:21:39.128Z,0.00
2019-04-03T02:22:39.059Z,0.00
2019-04-03T02:23:39.235Z,0.00
2019-04-03T02:24:39.032Z,0.00
2019-04-03T02:25:39.056Z,0.00
2019-04-03T02:26:39.005Z,0.00
2019-04-03T02:27:39.035Z,0.00
2019-04-03T02:28:38.983Z,0.00
2019-04-03T02:29:39.811Z,0.00
2019-04-03T02:30:38.971Z,0.00
2019-04-03T02:31:38.957Z,0.00
2019-04-03T02:32:38.938Z,0.00
2019-04-03T02:33:38.991Z,0.00
2019-04-03T02:34:38.914Z,0.00
2019-04-03T02:35:40.108Z,0.00
2019-04-03T02:36:39.148Z,0.00
2019-04-03T02:37:38.886Z,0.00
2019-04-03T02:38:38.933Z,0.00
2019-04-03T02:39:39.020Z,0.00
2019-04-03T02:40:38.850Z,0.00
2019-04-03T02:41:38.847Z,0.00
2019-04-03T02:42:41.240Z,0.00
2019-04-03T02:43:38.902Z,0.00
2019-04-03T02:44:39.023Z,0.00
2019-04-03T02:45:38.792Z,0.00
2019-04-03T02:46:38.801Z,0.00
2019-04-03T02:47:38.961Z,0.00
2019-04-03T02:48:38.999Z,0.00
2019-04-03T02:49:41.488Z,0.00
2019-04-03T02:50:38.788Z,0.00
2019-04-03T02:51:38.721Z,0.00
2019-04-03T02:52:38.755Z,0.00
2019-04-03T02:53:38.785Z,0.00
2019-04-03T02:54:38.692Z,0.00
2019-04-03T02:55:39.826Z,0.00
2019-04-03T02:56:38.671Z,0.00
2019-04-03T02:57:38.706Z,0.00
2019-04-03T02:58:38.684Z,0.00
2019-04-03T02:59:38.635Z,0.00
2019-04-03T03:00:38.671Z,0.00
2019-04-03T03:01:39.817Z,0.00
2019-04-03T03:02:38.738Z,0.00
2019-04-03T03:03:38.589Z,0.00
2019-04-03T03:04:38.576Z,0.00
2019-04-03T03:05:38.719Z,0.00
2019-04-03T03:06:38.550Z,0.00
2019-04-03T03:07:38.844Z,0.00
2019-04-03T03:08:41.681Z,0.00
2019-04-03T03:09:38.635Z,0.00
2019-04-03T03:10:38.508Z,0.00
2019-04-03T03:11:38.495Z,0.00
2019-04-03T03:12:38.828Z,0.00
2019-04-03T03:13:38.510Z,0.00
2019-04-03T03:14:39.784Z,0.00
2019-04-03T03:15:38.459Z,0.00
2019-04-03T03:16:38.444Z,0.00
2019-04-03T03:17:38.464Z,0.00
2019-04-03T03:18:38.419Z,0.00
2019-04-03T03:19:38.452Z,0.00
2019-04-03T03:20:40.359Z,0.00
2019-04-03T03:21:38.380Z,0.00
2019-04-03T03:22:38.373Z,0.00
2019-04-03T03:23:38.362Z,0.00
2019-04-03T03:24:38.678Z,0.00
2019-04-03T03:25:38.381Z,0.00
2019-04-03T03:26:38.371Z,0.00
2019-04-03T03:27:41.668Z,0.00
2019-04-03T03:28:38.354Z,0.00
2019-04-03T03:29:38.335Z,0.00
2019-04-03T03:30:45.518Z,0.00
2019-04-03T03:32:03.110Z,0.00
2019-04-03T03:32:39.882Z,0.00
2019-04-03T03:33:40.400Z,0.00
2019-04-03T03:34:54.727Z,0.00
2019-04-03T03:35:44.941Z,0.00
2019-04-03T03:36:39.354Z,0.00
2019-04-03T03:37:38.549Z,0.00
2019-04-03T03:38:39.872Z,0.00
2019-04-03T03:39:38.330Z,0.00
2019-04-03T03:40:38.309Z,0.00
2019-04-03T03:41:38.376Z,0.00
2019-04-03T03:42:38.226Z,0.00
2019-04-03T03:43:38.951Z,0.00
2019-04-03T03:44:38.221Z,0.00
2019-04-03T03:45:38.295Z,0.00
2019-04-03T03:46:38.446Z,0.00
2019-04-03T03:47:38.095Z,0.00
2019-04-03T03:48:42.454Z,0.00
2019-04-03T03:49:39.093Z,0.00
2019-04-03T03:50:38.058Z,0.00
2019-04-03T03:51:38.090Z,0.00
2019-04-03T03:52:38.594Z,0.00
2019-04-03T03:53:38.093Z,0.00
2019-04-03T03:54:38.457Z,0.00
2019-04-03T03:55:38.048Z,0.00
2019-04-03T03:56:38.222Z,0.00
2019-04-03T03:57:39.694Z,0.00
2019-04-03T03:58:38.014Z,0.00
2019-04-03T03:59:37.956Z,0.00
2019-04-03T04:00:37.946Z,0.00
2019-04-03T04:01:37.977Z,0.00
2019-04-03T04:02:42.489Z,0.00
2019-04-03T04:03:41.104Z,0.00
2019-04-03T04:04:37.916Z,0.00
2019-04-03T04:05:37.890Z,0.00
2019-04-03T04:06:37.918Z,0.00
2019-04-03T04:07:38.351Z,0.00
2019-04-03T04:08:37.854Z,0.00
2019-04-03T04:09:38.016Z,0.00
2019-04-03T04:10:37.832Z,0.00
2019-04-03T04:11:37.865Z,0.00
2019-04-03T04:12:41.233Z,0.00
2019-04-03T04:13:37.866Z,0.00
2019-04-03T04:14:38.231Z,0.00
2019-04-03T04:15:37.974Z,0.00
2019-04-03T04:16:38.362Z,0.00
2019-04-03T04:17:38.041Z,0.00
2019-04-03T04:18:38.200Z,0.00
2019-04-03T04:19:37.829Z,0.00
2019-04-03T04:20:38.487Z,0.00
2019-04-03T04:21:37.714Z,0.00
2019-04-03T04:22:37.745Z,0.00
2019-04-03T04:23:37.687Z,0.00
2019-04-03T04:24:38.209Z,0.00
2019-04-03T04:25:37.817Z,0.00
2019-04-03T04:26:37.700Z,0.00
2019-04-03T04:27:39.005Z,0.00
2019-04-03T04:28:39.536Z,0.00
2019-04-03T04:29:37.727Z,0.00
2019-04-03T04:30:37.607Z,0.00
2019-04-03T04:31:37.635Z,0.00
2019-04-03T04:32:37.819Z,0.00
2019-04-03T04:33:37.573Z,0.00
2019-04-03T04:34:37.567Z,0.00
2019-04-03T04:35:37.550Z,0.00
2019-04-03T04:36:37.748Z,0.00
2019-04-03T04:37:40.030Z,0.00
2019-04-03T04:38:37.515Z,0.00
2019-04-03T04:39:37.516Z,0.00
2019-04-03T04:40:37.495Z,0.00
2019-04-03T04:41:37.524Z,0.00
2019-04-03T04:42:37.470Z,0.00
2019-04-03T04:43:37.652Z,0.00
2019-04-03T04:44:38.874Z,0.00
2019-04-03T04:45:37.435Z,4.00
2019-04-03T04:46:37.428Z,4.00
2019-04-03T04:47:37.462Z,4.00
2019-04-03T04:48:37.635Z,0.00
2019-04-03T04:49:37.433Z,4.00
2019-04-03T04:50:37.379Z,4.00
2019-04-03T04:51:37.369Z,4.00
2019-04-03T04:52:37.358Z,8.00
2019-04-03T04:53:37.353Z,4.00
2019-04-03T04:54:37.374Z,8.00
2019-04-03T04:55:37.490Z,8.00
2019-04-03T04:56:38.119Z,8.00
2019-04-03T04:57:40.153Z,12.00
2019-04-03T04:58:37.318Z,12.00
2019-04-03T04:59:37.325Z,12.00
2019-04-03T05:00:37.266Z,12.00
2019-04-03T05:01:37.268Z,12.00
2019-04-03T05:02:37.253Z,20.00
2019-04-03T05:03:37.417Z,20.00
2019-04-03T05:04:37.237Z,28.00
2019-04-03T05:05:37.267Z,28.00
2019-04-03T05:06:37.249Z,32.00
2019-04-03T05:07:37.273Z,40.00
2019-04-03T05:08:37.185Z,40.00
2019-04-03T05:09:37.238Z,36.00
2019-04-03T05:10:37.366Z,40.00
2019-04-03T05:11:39.071Z,40.00
2019-04-03T05:12:38.985Z,44.00
2019-04-03T05:13:37.121Z,44.00
2019-04-03T05:14:37.122Z,44.00
2019-04-03T05:15:37.314Z,48.00
2019-04-03T05:16:37.113Z,52.00
2019-04-03T05:17:37.327Z,52.00
2019-04-03T05:18:37.114Z,60.00
2019-04-03T05:19:37.189Z,64.00
2019-04-03T05:20:37.044Z,68.00
2019-04-03T05:21:37.033Z,80.00
2019-04-03T05:22:37.049Z,92.00
2019-04-03T05:23:37.028Z,108.00
2019-04-03T05:24:37.009Z,124.00
2019-04-03T05:25:37.030Z,144.00
2019-04-03T05:26:36.991Z,160.00
2019-04-03T05:27:36.965Z,180.00
2019-04-03T05:28:37.008Z,200.00
2019-04-03T05:29:37.205Z,232.00
2019-04-03T05:30:37.942Z,272.00
2019-04-03T05:31:38.905Z,324.00
2019-04-03T05:32:36.948Z,364.00
2019-04-03T05:33:36.905Z,364.00
2019-04-03T05:34:36.953Z,340.00
2019-04-03T05:35:37.660Z,320.00
2019-04-03T05:36:36.875Z,332.00
2019-04-03T05:37:36.931Z,344.00
2019-04-03T05:38:38.086Z,356.00
2019-04-03T05:39:36.845Z,364.00
2019-04-03T05:40:36.828Z,352.00
2019-04-03T05:41:36.811Z,328.00
2019-04-03T05:42:36.805Z,308.00
2019-04-03T05:43:36.792Z,292.00
2019-04-03T05:44:36.818Z,268.00
2019-04-03T05:45:36.768Z,268.00
2019-04-03T05:46:37.655Z,280.00
2019-04-03T05:47:38.851Z,308.00
2019-04-03T05:48:36.928Z,332.00
2019-04-03T05:49:36.732Z,348.00
2019-04-03T05:50:37.117Z,352.00
2019-04-03T05:51:36.858Z,344.00
2019-04-03T05:52:36.955Z,348.00
2019-04-03T05:53:37.861Z,356.00
2019-04-03T05:54:38.780Z,368.00
2019-04-03T05:55:36.684Z,372.00
2019-04-03T05:56:36.646Z,368.00
2019-04-03T05:57:36.775Z,348.00
2019-04-03T05:58:36.619Z,348.00
2019-04-03T05:59:36.662Z,364.00
2019-04-03T06:00:38.182Z,400.00
2019-04-03T06:01:36.784Z,424.00
2019-04-03T06:02:36.591Z,432.00
2019-04-03T06:03:42.163Z,436.00
2019-04-03T06:04:40.163Z,444.00
2019-04-03T06:05:36.633Z,492.00
2019-04-03T06:06:36.560Z,552.00
2019-04-03T06:07:36.522Z,596.00
2019-04-03T06:08:36.533Z,596.00
2019-04-03T06:09:36.621Z,564.00
2019-04-03T06:10:37.579Z,524.00
2019-04-03T06:11:36.555Z,496.00
2019-04-03T06:12:37.708Z,500.00
2019-04-03T06:13:36.547Z,548.00
2019-04-03T06:14:37.120Z,588.00
2019-04-03T06:15:36.454Z,592.00
2019-04-03T06:16:36.482Z,560.00
2019-04-03T06:17:36.467Z,532.00
2019-04-03T06:18:36.547Z,520.00
2019-04-03T06:19:39.254Z,548.00
2019-04-03T06:20:36.414Z,568.00
2019-04-03T06:21:36.370Z,588.00
2019-04-03T06:22:36.681Z,600.00
2019-04-03T06:23:36.490Z,624.00
2019-04-03T06:24:36.408Z,652.00
2019-04-03T06:25:36.321Z,676.00
2019-04-03T06:26:38.030Z,688.00
2019-04-03T06:27:36.425Z,712.00
2019-04-03T06:28:36.377Z,744.00
2019-04-03T06:29:36.275Z,776.00
2019-04-03T06:30:36.268Z,820.00
2019-04-03T06:31:36.405Z,884.00
2019-04-03T06:32:36.492Z,940.00
2019-04-03T06:33:36.689Z,992.00
2019-04-03T06:34:38.417Z,1032.00
2019-04-03T06:35:36.258Z,1048.00
2019-04-03T06:36:36.200Z,1032.00
2019-04-03T06:37:36.268Z,1000.00
2019-04-03T06:38:36.188Z,956.00
2019-04-03T06:39:36.254Z,932.00
2019-04-03T06:40:36.354Z,916.00
2019-04-03T06:41:36.201Z,924.00
2019-04-03T06:42:36.185Z,964.00
2019-04-03T06:43:36.145Z,1032.00
2019-04-03T06:44:36.131Z,1100.00
2019-04-03T06:45:36.103Z,1156.00
2019-04-03T06:46:36.089Z,1196.00
2019-04-03T06:47:36.087Z,1216.00
2019-04-03T06:48:37.168Z,1216.00
2019-04-03T06:49:36.102Z,1208.00
2019-04-03T06:50:36.046Z,1228.00
2019-04-03T06:51:36.053Z,1272.00
2019-04-03T06:52:36.264Z,1348.00
2019-04-03T06:53:36.019Z,1428.00
2019-04-03T06:54:36.241Z,1484.00
2019-04-03T06:55:36.559Z,1500.00
2019-04-03T06:56:36.018Z,1504.00
2019-04-03T06:57:35.971Z,1532.00
2019-04-03T06:58:38.679Z,1596.00
2019-04-03T06:59:35.943Z,1680.00
2019-04-03T07:00:35.952Z,1784.00
2019-04-03T07:01:36.048Z,1900.00
2019-04-03T07:02:35.925Z,2024.00
2019-04-03T07:03:35.928Z,2140.00
2019-04-03T07:04:37.500Z,2220.00
2019-04-03T07:05:35.876Z,2248.00
2019-04-03T07:06:35.923Z,2212.00
2019-04-03T07:07:36.154Z,2144.00
2019-04-03T07:08:38.089Z,2080.00
2019-04-03T07:09:36.926Z,2072.00
2019-04-03T07:10:36.492Z,2088.00
2019-04-03T07:11:35.853Z,2100.00
2019-04-03T07:12:35.931Z,2144.00
2019-04-03T07:13:36.056Z,2204.00
2019-04-03T07:14:35.852Z,2292.00
2019-04-03T07:15:35.785Z,2348.00
2019-04-03T07:16:38.171Z,2352.00
2019-04-03T07:17:35.990Z,2456.00
2019-04-03T07:18:37.030Z,2632.00
2019-04-03T07:19:35.735Z,2748.00
2019-04-03T07:20:35.717Z,2812.00
2019-04-03T07:21:35.765Z,2888.00
2019-04-03T07:22:35.695Z,2940.00
2019-04-03T07:23:35.868Z,2936.00
2019-04-03T07:24:35.711Z,2880.00
2019-04-03T07:25:35.822Z,2832.00
2019-04-03T07:26:36.297Z,2784.00
2019-04-03T07:27:37.431Z,2724.00
2019-04-03T07:28:35.691Z,2664.00
2019-04-03T07:29:35.628Z,2600.00
2019-04-03T07:30:35.607Z,2520.00
2019-04-03T07:31:35.896Z,2480.00
2019-04-03T07:32:35.712Z,2448.00
2019-04-03T07:33:35.605Z,2424.00
2019-04-03T07:34:35.563Z,2396.00
2019-04-03T07:35:35.559Z,2356.00
2019-04-03T07:36:35.590Z,2304.00
2019-04-03T07:37:35.581Z,2224.00
2019-04-03T07:38:35.522Z,2164.00
2019-04-03T07:39:35.526Z,2168.00
2019-04-03T07:40:35.561Z,2200.00
2019-04-03T07:41:35.521Z,2252.00
2019-04-03T07:42:35.654Z,2328.00
2019-04-03T07:43:35.697Z,2428.00
2019-04-03T07:44:35.444Z,2516.00
2019-04-03T07:45:35.490Z,2608.00
2019-04-03T07:46:35.635Z,2756.00
2019-04-03T07:47:35.837Z,2928.00
2019-04-03T07:48:37.158Z,3028.00
2019-04-03T07:49:35.421Z,3008.00
2019-04-03T07:50:36.969Z,2968.00
2019-04-03T07:51:35.634Z,2888.00
2019-04-03T07:52:35.419Z,2900.00
2019-04-03T07:53:35.371Z,2940.00
2019-04-03T07:54:35.354Z,2980.00
2019-04-03T07:55:35.599Z,2988.00
2019-04-03T07:56:35.365Z,2964.00
2019-04-03T07:57:36.700Z,2936.00
2019-04-03T07:58:35.304Z,2932.00
2019-04-03T07:59:35.287Z,2936.00
2019-04-03T08:00:36.306Z,2948.00
2019-04-03T08:01:35.271Z,2996.00
2019-04-03T08:02:35.256Z,3052.00
2019-04-03T08:03:35.343Z,3096.00
2019-04-03T08:04:35.437Z,3200.00
2019-04-03T08:05:35.423Z,3336.00
2019-04-03T08:06:36.322Z,3524.00
2019-04-03T08:07:35.233Z,3836.00
2019-04-03T08:08:35.183Z,4192.00
2019-04-03T08:09:35.176Z,4476.00
2019-04-03T08:10:37.266Z,4668.00
2019-04-03T08:11:37.259Z,4864.00
2019-04-03T08:12:35.909Z,5028.00
2019-04-03T08:13:37.402Z,5100.00
2019-04-03T08:14:35.122Z,5100.00
2019-04-03T08:15:35.289Z,5044.00
2019-04-03T08:16:35.134Z,4964.00
2019-04-03T08:17:35.088Z,4872.00
2019-04-03T08:18:35.142Z,4772.00
2019-04-03T08:19:35.053Z,4712.00
2019-04-03T08:20:35.096Z,4688.00
2019-04-03T08:21:35.034Z,4752.00
2019-04-03T08:22:35.030Z,4860.00
2019-04-03T08:23:36.758Z,5016.00
2019-04-03T08:24:35.043Z,5188.00
2019-04-03T08:25:35.103Z,5452.00
2019-04-03T08:26:35.033Z,5848.00
2019-04-03T08:27:34.966Z,6424.00
2019-04-03T08:28:35.010Z,7040.00
2019-04-03T08:29:38.035Z,7476.00
2019-04-03T08:30:35.005Z,7680.00
2019-04-03T08:31:35.140Z,7936.00
2019-04-03T08:32:34.923Z,8248.00
2019-04-03T08:33:34.900Z,8384.00
2019-04-03T08:34:34.934Z,8324.00
2019-04-03T08:35:35.875Z,8004.00
2019-04-03T08:36:35.256Z,7548.00
2019-04-03T08:37:34.849Z,7108.00
2019-04-03T08:38:35.232Z,6676.00
2019-04-03T08:39:35.049Z,6472.00
2019-04-03T08:40:34.867Z,6656.00
2019-04-03T08:41:36.906Z,7016.00
2019-04-03T08:42:34.801Z,7536.00
2019-04-03T08:43:34.852Z,7584.00
2019-04-03T08:44:35.741Z,7224.00
2019-04-03T08:45:37.829Z,7004.00
2019-04-03T08:46:34.763Z,6816.00
2019-04-03T08:47:37.117Z,6492.00
2019-04-03T08:48:34.743Z,6092.00
2019-04-03T08:49:34.970Z,5688.00
2019-04-03T08:50:34.711Z,5216.00
2019-04-03T08:51:34.992Z,4876.00
2019-04-03T08:52:36.942Z,4716.00
2019-04-03T08:53:34.785Z,4740.00
2019-04-03T08:54:34.663Z,4980.00
2019-04-03T08:55:34.649Z,5272.00
2019-04-03T08:56:34.642Z,5396.00
2019-04-03T08:57:34.677Z,5404.00
2019-04-03T08:58:34.775Z,5344.00
2019-04-03T08:59:34.973Z,5512.00
2019-04-03T09:00:34.937Z,5928.00
2019-04-03T09:01:37.103Z,6508.00
2019-04-03T09:02:34.614Z,7204.00
2019-04-03T09:03:34.578Z,8088.00
2019-04-03T09:04:34.802Z,8728.00
2019-04-03T09:05:34.538Z,8920.00
2019-04-03T09:06:34.523Z,8768.00
2019-04-03T09:07:34.773Z,8444.00
2019-04-03T09:08:34.563Z,7908.00
2019-04-03T09:09:35.713Z,7348.00
2019-04-03T09:10:36.710Z,6748.00
2019-04-03T09:11:36.314Z,6280.00
2019-04-03T09:12:37.603Z,5912.00
2019-04-03T09:13:34.645Z,5568.00
2019-04-03T09:14:34.891Z,5312.00
2019-04-03T09:15:34.426Z,5132.00
2019-04-03T09:16:34.560Z,5024.00
2019-04-03T09:17:34.739Z,4900.00
2019-04-03T09:18:37.850Z,4916.00
2019-04-03T09:19:34.378Z,4940.00
2019-04-03T09:20:36.082Z,4856.00
2019-04-03T09:21:34.366Z,4624.00
2019-04-03T09:22:34.415Z,4392.00
2019-04-03T09:23:34.382Z,4172.00
2019-04-03T09:24:34.323Z,3880.00
2019-04-03T09:25:34.344Z,3484.00
2019-04-03T09:26:37.131Z,3172.00
2019-04-03T09:27:34.303Z,3008.00
2019-04-03T09:28:34.392Z,2972.00
2019-04-03T09:29:34.264Z,3060.00
2019-04-03T09:30:34.279Z,3288.00
2019-04-03T09:31:34.252Z,3516.00
2019-04-03T09:32:36.883Z,3656.00
2019-04-03T09:33:34.233Z,3872.00
2019-04-03T09:34:34.836Z,4264.00
2019-04-03T09:35:34.353Z,4616.00
2019-04-03T09:36:34.880Z,4828.00
2019-04-03T09:37:36.871Z,5052.00
2019-04-03T09:38:36.100Z,5332.00
2019-04-03T09:39:34.150Z,5704.00
2019-04-03T09:40:34.279Z,6160.00
2019-04-03T09:41:34.134Z,6680.00
2019-04-03T09:42:34.126Z,7092.00
2019-04-03T09:43:34.374Z,7144.00
2019-04-03T09:44:34.201Z,7064.00
2019-04-03T09:45:34.513Z,7092.00
2019-04-03T09:46:34.082Z,7248.00
2019-04-03T09:47:34.935Z,7412.00
2019-04-03T09:48:34.870Z,7520.00
2019-04-03T09:49:34.046Z,7436.00
2019-04-03T09:50:34.083Z,7304.00
2019-04-03T09:51:34.018Z,7336.00
2019-04-03T09:52:41.649Z,7472.00
2019-04-03T09:53:34.997Z,7536.00
2019-04-03T09:54:34.028Z,7560.00
2019-04-03T09:55:36.975Z,7596.00
2019-04-03T09:56:36.736Z,7748.00
2019-04-03T09:57:34.239Z,7692.00
2019-04-03T09:58:35.608Z,7816.00
2019-04-03T09:59:34.156Z,8252.00
2019-04-03T10:00:34.191Z,8436.00
2019-04-03T10:01:33.980Z,8332.00
2019-04-03T10:02:34.252Z,8328.00
2019-04-03T10:03:33.884Z,8444.00
2019-04-03T10:04:33.869Z,8880.00
2019-04-03T10:05:33.879Z,9440.00
2019-04-03T10:06:33.845Z,9816.00
2019-04-03T10:07:36.343Z,9696.00
2019-04-03T10:08:33.927Z,9312.00
2019-04-03T10:09:33.811Z,8704.00
2019-04-03T10:10:33.818Z,7940.00
2019-04-03T10:11:33.807Z,7608.00
2019-04-03T10:12:33.800Z,7856.00
2019-04-03T10:13:33.766Z,8304.00
2019-04-03T10:14:33.803Z,8544.00
2019-04-03T10:15:33.747Z,8384.00
2019-04-03T10:16:35.570Z,8076.00
2019-04-03T10:17:35.176Z,7540.00
2019-04-03T10:18:33.781Z,6760.00
2019-04-03T10:19:33.724Z,6052.00
2019-04-03T10:20:33.746Z,5820.00
2019-04-03T10:21:33.831Z,6016.00
2019-04-03T10:22:33.725Z,6260.00
2019-04-03T10:23:33.672Z,6272.00
2019-04-03T10:24:33.651Z,6252.00
2019-04-03T10:25:34.839Z,6300.00
2019-04-03T10:26:33.961Z,6492.00
2019-04-03T10:27:33.653Z,6712.00
2019-04-03T10:28:33.644Z,6948.00
2019-04-03T10:29:33.664Z,7236.00
2019-04-03T10:30:33.577Z,7636.00
2019-04-03T10:31:33.634Z,7968.00
2019-04-03T10:32:33.621Z,8216.00
2019-04-03T10:33:33.597Z,8460.00
2019-04-03T10:34:35.682Z,8652.00
2019-04-03T10:35:33.974Z,8948.00
2019-04-03T10:36:33.565Z,9220.00
2019-04-03T10:37:33.499Z,9344.00
2019-04-03T10:38:33.750Z,9408.00
2019-04-03T10:39:33.471Z,9340.00
2019-04-03T10:40:33.458Z,9140.00
2019-04-03T10:41:33.782Z,9160.00
2019-04-03T10:42:33.713Z,9444.00
2019-04-03T10:43:36.630Z,9792.00
2019-04-03T10:44:33.490Z,10180.00
2019-04-03T10:45:33.659Z,10680.00
2019-04-03T10:46:33.446Z,10920.00
2019-04-03T10:47:41.110Z,10800.00
2019-04-03T10:48:34.373Z,10844.00
2019-04-03T10:49:33.359Z,11000.00
2019-04-03T10:50:36.474Z,11320.00
2019-04-03T10:51:33.400Z,12152.00
2019-04-03T10:52:33.324Z,13528.00
2019-04-03T10:53:33.316Z,15004.00
2019-04-03T10:54:33.303Z,15608.00
2019-04-03T10:55:33.544Z,15236.00
2019-04-03T10:56:33.434Z,14712.00
2019-04-03T10:57:34.761Z,14860.00
2019-04-03T10:58:33.399Z,15308.00
2019-04-03T10:59:33.254Z,15464.00
2019-04-03T11:00:33.228Z,15496.00
2019-04-03T11:01:33.445Z,15596.00
2019-04-03T11:02:33.618Z,16124.00
2019-04-03T11:03:33.197Z,16864.00
2019-04-03T11:04:33.197Z,17088.00
2019-04-03T11:05:33.183Z,16200.00
2019-04-03T11:06:35.208Z,14924.00
2019-04-03T11:07:33.155Z,13780.00
2019-04-03T11:08:33.185Z,12920.00
2019-04-03T11:09:33.387Z,12180.00
2019-04-03T11:10:33.146Z,11172.00
2019-04-03T11:11:33.403Z,9952.00
2019-04-03T11:12:33.313Z,8884.00
2019-04-03T11:13:34.377Z,8168.00
2019-04-03T11:14:33.134Z,7988.00
2019-04-03T11:15:33.063Z,7924.00
2019-04-03T11:16:33.214Z,8152.00
2019-04-03T11:17:33.047Z,8596.00
2019-04-03T11:18:33.026Z,9156.00
2019-04-03T11:19:33.283Z,9472.00
2019-04-03T11:20:35.677Z,9360.00
2019-04-03T11:21:33.095Z,8572.00
2019-04-03T11:23:39.812Z,6748.00
2019-04-03T11:24:33.968Z,6624.00
2019-04-03T11:25:32.977Z,6652.00
2019-04-03T11:26:33.176Z,6568.00
2019-04-03T11:28:37.066Z,7084.00
2019-04-03T11:29:33.161Z,7108.00
2019-04-03T11:30:32.903Z,7092.00
2019-04-03T11:30:53.706Z,7424.00
2019-04-03T11:30:54.598Z,6704.00
2019-04-03T11:31:36.083Z,7236.00
2019-04-03T11:32:34.058Z,7492.00
2019-04-03T11:33:33.021Z,7876.00
2019-04-03T11:34:32.845Z,8168.00
2019-04-03T11:35:32.837Z,8460.00
2019-04-03T11:36:32.832Z,9112.00
2019-04-03T11:37:33.790Z,10028.00
2019-04-03T11:38:32.802Z,10568.00
2019-04-03T11:39:33.167Z,10496.00
2019-04-03T11:40:32.784Z,10208.00
2019-04-03T11:41:32.781Z,9980.00
2019-04-03T11:42:32.756Z,9856.00
2019-04-03T11:43:32.819Z,9688.00
2019-04-03T11:44:32.845Z,9492.00
2019-04-03T11:45:32.720Z,9368.00
2019-04-03T11:46:32.714Z,9200.00
2019-04-03T11:47:32.708Z,8892.00
2019-04-03T11:48:32.693Z,8596.00
2019-04-03T11:49:32.740Z,8332.00
2019-04-03T11:50:32.663Z,7908.00
2019-04-03T11:51:33.991Z,7360.00
2019-04-03T11:52:32.668Z,6784.00
2019-04-03T11:53:34.606Z,6248.00
2019-04-03T11:54:32.861Z,5832.00
2019-04-03T11:55:32.616Z,5544.00
2019-04-03T11:56:32.621Z,5336.00
2019-04-03T11:57:33.002Z,5228.00
2019-04-03T11:58:32.632Z,5232.00
2019-04-03T11:59:32.739Z,5212.00
2019-04-03T12:00:32.556Z,5072.00
2019-04-03T12:01:32.587Z,4776.00
2019-04-03T12:02:32.950Z,4452.00
2019-04-03T12:03:32.522Z,4304.00
2019-04-03T12:04:32.515Z,4280.00
2019-04-03T12:05:32.499Z,4184.00
2019-04-03T12:06:32.483Z,4024.00
2019-04-03T12:07:32.634Z,3896.00
2019-04-03T12:08:32.518Z,3804.00
2019-04-03T12:09:32.949Z,3660.00
2019-04-03T12:10:34.141Z,3472.00
2019-04-03T12:11:32.738Z,3252.00
2019-04-03T12:12:32.728Z,3060.00
2019-04-03T12:13:32.419Z,2924.00
2019-04-03T12:14:32.401Z,2848.00
2019-04-03T12:15:33.946Z,2812.00
2019-04-03T12:16:32.636Z,2808.00
2019-04-03T12:17:32.417Z,2800.00
2019-04-03T12:18:34.150Z,2808.00
2019-04-03T12:19:32.652Z,2880.00
2019-04-03T12:20:32.700Z,3032.00
2019-04-03T12:21:32.322Z,3228.00
2019-04-03T12:22:32.305Z,3476.00
2019-04-03T12:23:32.358Z,3812.00
2019-04-03T12:24:32.598Z,4220.00
2019-04-03T12:25:34.149Z,4648.00
2019-04-03T12:26:32.258Z,5348.00
2019-04-03T12:27:35.137Z,6200.00
2019-04-03T12:28:32.238Z,6724.00
2019-04-03T12:29:32.284Z,6708.00
2019-04-03T12:30:32.566Z,6484.00
2019-04-03T12:31:32.545Z,6696.00
2019-04-03T12:32:39.281Z,7200.00
2019-04-03T12:33:33.337Z,7100.00
2019-04-03T12:34:32.177Z,6360.00
2019-04-03T12:35:32.158Z,6016.00